Time;durP1;ratioP1;P1;durP2;ratioP2;P2;SDS_P1;SDS_P2;PMS_P1;PMS_P2;Temp;Humidity;BMP_temperature;BMP_pressure;BME280_temperature;BME280_humidity;BME280_pressure;Samples;Min_cycle;Max_cycle;Signal;HPM_P1;HPM_P2
2021/06/26 00:00:03;;;;;;;13.52;10.65;;;;;;;12.36;92.49;94091.75;737758;39;20222;-75
2021/06/26 00:00:34;;;;;;;15.70;10.05;;;;;;;12.50;92.23;94094.03;739845;39;20043;-75
2021/06/26 00:01:04;;;;;;;13.20;11.00;;;;;;;12.49;92.16;94090.63;736880;39;20116;-74
2021/06/26 00:01:35;;;;;;;11.68;10.38;;;;;;;12.48;92.59;94094.28;738557;39;20091;-74
2021/06/26 00:02:05;;;;;;;17.20;11.50;;;;;;;12.43;92.73;94097.59;736732;39;20044;-75
2021/06/26 00:02:37;;;;;;;13.05;10.45;;;;;;;12.31;92.60;94089.03;739007;39;20104;-76
2021/06/26 00:03:08;;;;;;;16.08;9.65;;;;;;;12.26;92.83;94088.97;737529;39;20316;-75
2021/06/26 00:03:38;;;;;;;14.25;10.55;;;;;;;12.26;93.15;94093.38;738212;39;20051;-76
2021/06/26 00:04:10;;;;;;;16.30;11.80;;;;;;;12.25;93.63;94100.44;738153;39;20205;-75
2021/06/26 00:04:42;;;;;;;15.75;10.40;;;;;;;12.34;93.08;94100.81;737862;39;20040;-76
2021/06/26 00:05:13;;;;;;;11.48;9.50;;;;;;;12.39;92.25;94100.91;736813;39;20417;-75
2021/06/26 00:05:44;;;;;;;12.27;10.32;;;;;;;12.31;92.61;94096.09;737467;39;20225;-75
2021/06/26 00:06:14;;;;;;;12.85;9.63;;;;;;;12.29;92.87;94098.91;738008;39;20130;-75
2021/06/26 00:06:45;;;;;;;11.15;9.00;;;;;;;12.32;92.96;94101.06;737587;39;20040;-75
2021/06/26 00:07:16;;;;;;;21.00;10.20;;;;;;;12.42;92.60;94100.44;738135;39;20051;-75
2021/06/26 00:07:46;;;;;;;17.27;11.38;;;;;;;12.43;92.87;94104.63;736445;39;20032;-76
2021/06/26 00:08:17;;;;;;;15.60;11.23;;;;;;;12.35;92.98;94103.22;737687;39;20525;-75
2021/06/26 00:08:48;;;;;;;18.40;11.65;;;;;;;12.36;93.70;94098.78;736824;39;20067;-75
2021/06/26 00:09:18;;;;;;;14.05;11.27;;;;;;;12.43;93.72;94094.19;741315;39;20044;-75
2021/06/26 00:09:48;;;;;;;14.15;11.55;;;;;;;12.54;93.38;94092.53;739824;39;20120;-76
2021/06/26 00:10:19;;;;;;;16.27;12.40;;;;;;;12.54;93.30;94090.72;741549;39;20471;-76
2021/06/26 00:10:50;;;;;;;17.38;11.98;;;;;;;12.61;93.23;94093.16;739609;39;20297;-76
2021/06/26 00:11:20;;;;;;;18.17;11.73;;;;;;;12.77;92.67;94102.00;737916;39;20523;-75
2021/06/26 00:11:51;;;;;;;15.52;11.18;;;;;;;12.73;92.64;94098.28;737011;39;20048;-76
2021/06/26 00:12:21;;;;;;;16.67;11.45;;;;;;;12.73;92.63;94098.28;737651;39;20531;-74
2021/06/26 00:12:52;;;;;;;13.50;10.95;;;;;;;12.78;92.38;94098.38;736759;39;20036;-75
2021/06/26 00:13:23;;;;;;;14.50;10.68;;;;;;;12.72;92.66;94092.28;739511;39;20072;-75
2021/06/26 00:13:53;;;;;;;15.18;10.30;;;;;;;12.70;92.39;94094.34;737639;39;20123;-75
2021/06/26 00:14:24;;;;;;;13.63;10.88;;;;;;;12.77;92.36;94094.19;739494;39;20220;-77
2021/06/26 00:14:54;;;;;;;14.95;11.52;;;;;;;12.74;92.61;94097.28;738060;39;20051;-76
2021/06/26 00:15:25;;;;;;;14.48;10.68;;;;;;;12.68;92.75;94093.78;738906;39;20461;-75
2021/06/26 00:15:55;;;;;;;15.00;9.63;;;;;;;12.48;92.44;94070.00;734825;40;20036;-75
2021/06/26 00:16:26;;;;;;;12.98;9.43;;;;;;;12.52;92.30;94097.97;736414;40;20578;-76
2021/06/26 00:16:56;;;;;;;12.57;9.65;;;;;;;12.51;92.89;94096.41;736475;39;20284;-75
2021/06/26 00:17:27;;;;;;;11.48;10.13;;;;;;;12.49;92.78;94095.84;735913;40;20461;-75
2021/06/26 00:17:58;;;;;;;17.85;10.85;;;;;;;12.47;93.41;94090.09;736349;39;20256;-75
2021/06/26 00:18:28;;;;;;;15.98;11.07;;;;;;;12.41;93.21;94091.84;736425;39;20140;-74
2021/06/26 00:18:59;;;;;;;14.43;11.43;;;;;;;12.40;93.56;94094.66;735873;39;20040;-75
2021/06/26 00:19:29;;;;;;;14.38;11.07;;;;;;;12.39;93.41;94093.09;737252;39;20343;-76
2021/06/26 00:20:00;;;;;;;13.05;11.18;;;;;;;12.47;93.41;94092.69;734469;39;20044;-76
2021/06/26 00:20:31;;;;;;;14.98;11.18;;;;;;;12.54;93.35;94090.72;738332;39;20668;-75
2021/06/26 00:21:02;;;;;;;17.52;11.48;;;;;;;12.55;93.24;94096.72;735508;40;20141;-76
2021/06/26 00:21:32;;;;;;;14.40;10.77;;;;;;;12.72;92.89;94097.50;736982;40;20048;-74
2021/06/26 00:22:04;;;;;;;12.90;9.75;;;;;;;12.76;92.22;94098.63;735906;40;20146;-75
2021/06/26 00:22:35;;;;;;;19.08;10.77;;;;;;;12.80;92.03;94094.50;736669;39;20040;-75
2021/06/26 00:23:06;;;;;;;17.95;11.13;;;;;;;12.72;92.16;94101.94;735087;39;20141;-75
2021/06/26 00:23:36;;;;;;;12.60;10.52;;;;;;;12.64;92.47;94098.72;738149;39;20071;-75
2021/06/26 00:24:07;;;;;;;13.38;11.05;;;;;;;12.63;93.05;94101.53;737076;39;20186;-76
2021/06/26 00:24:37;;;;;;;16.10;12.00;;;;;;;12.56;93.08;94101.72;737691;39;20071;-76
2021/06/26 00:25:08;;;;;;;11.13;9.07;;;;;;;12.77;91.61;94099.41;739116;39;20091;-77
2021/06/26 00:25:40;;;;;;;11.68;8.43;;;;;;;12.66;91.34;94093.25;739494;39;20058;-77
2021/06/26 00:26:10;;;;;;;12.25;8.45;;;;;;;12.58;91.30;94096.25;739104;39;20036;-76
2021/06/26 00:26:41;;;;;;;13.48;9.18;;;;;;;12.49;91.48;94097.66;740160;39;20035;-76
2021/06/26 00:27:11;;;;;;;13.38;9.88;;;;;;;12.41;92.34;94109.28;737517;39;20480;-74
2021/06/26 00:27:42;;;;;;;13.63;9.77;;;;;;;12.35;92.32;94102.41;738589;39;20032;-76
2021/06/26 00:28:12;;;;;;;14.50;10.95;;;;;;;12.33;93.30;94107.88;733145;39;20132;-76
2021/06/26 00:28:43;;;;;;;16.55;10.73;;;;;;;12.28;92.96;94102.56;737976;39;20113;-75
2021/06/26 00:29:13;;;;;;;12.60;9.85;;;;;;;12.25;92.76;94104.84;740965;39;20043;-75
2021/06/26 00:29:44;;;;;;;16.15;11.13;;;;;;;12.16;93.26;94102.63;740397;39;20415;-75
2021/06/26 00:30:15;;;;;;;12.55;9.23;;;;;;;12.22;91.75;94103.50;740365;39;20043;-76
2021/06/26 00:30:45;;;;;;;14.20;8.68;;;;;;;12.13;91.13;94103.09;740666;39;20044;-76
2021/06/26 00:31:16;;;;;;;10.20;9.05;;;;;;;12.01;91.07;94089.34;738497;40;20322;-75
2021/06/26 00:31:47;;;;;;;10.52;8.07;;;;;;;12.12;91.13;94104.13;737854;39;20036;-76
2021/06/26 00:32:17;;;;;;;9.77;7.88;;;;;;;12.20;89.91;94098.50;736396;39;20324;-74
2021/06/26 00:32:48;;;;;;;11.00;7.53;;;;;;;11.98;89.86;94093.22;736250;39;20064;-76
2021/06/26 00:33:19;;;;;;;13.25;8.32;;;;;;;11.90;90.66;94098.78;739775;39;20386;-76
2021/06/26 00:33:49;;;;;;;8.98;7.05;;;;;;;11.97;90.32;94096.81;739757;39;20445;-76
2021/06/26 00:34:20;;;;;;;9.10;7.43;;;;;;;11.82;90.04;94087.91;740792;39;20055;-74
2021/06/26 00:34:50;;;;;;;13.07;7.88;;;;;;;11.82;90.36;94106.16;737647;39;20314;-76
2021/06/26 00:35:21;;;;;;;12.75;7.78;;;;;;;11.66;90.53;94099.91;738432;39;20141;-75
2021/06/26 00:35:51;;;;;;;10.80;8.18;;;;;;;11.53;91.12;94095.72;736856;39;20056;-75
2021/06/26 00:36:22;;;;;;;13.90;8.50;;;;;;;11.53;91.47;94106.16;739233;39;20087;-75
2021/06/26 00:36:52;;;;;;;15.45;8.98;;;;;;;11.48;92.31;94106.03;737782;39;20436;-75
2021/06/26 00:37:23;;;;;;;11.40;10.20;;;;;;;11.46;92.93;94105.50;739312;39;20128;-75
2021/06/26 00:37:54;;;;;;;12.30;10.48;;;;;;;11.41;93.12;94108.00;739070;39;20091;-76
2021/06/26 00:38:24;;;;;;;12.95;10.52;;;;;;;11.44;93.39;94100.50;741208;39;20066;-76
2021/06/26 00:38:55;;;;;;;17.88;11.73;;;;;;;11.55;93.73;94111.94;738849;39;20023;-76
2021/06/26 00:39:25;;;;;;;13.07;11.15;;;;;;;11.55;93.67;94109.31;737399;39;20051;-76
2021/06/26 00:39:56;;;;;;;14.73;9.85;;;;;;;11.78;93.03;94098.03;734893;39;20033;-76
2021/06/26 00:40:26;;;;;;;13.75;9.48;;;;;;;11.72;92.31;94099.75;737630;40;20125;-74
2021/06/26 00:40:57;;;;;;;16.65;10.75;;;;;;;11.71;94.42;94095.53;736369;39;20238;-75
2021/06/26 00:41:28;;;;;;;20.50;15.43;;;;;;;11.90;94.26;94105.81;738221;39;20400;-75
2021/06/26 00:42:01;;;;;;;16.73;12.95;;;;;;;11.86;93.45;94096.88;734149;40;20350;-76
2021/06/26 00:42:34;;;;;;;16.83;12.15;;;;;;;11.95;94.22;94098.88;735014;40;20051;-76
2021/06/26 00:43:04;;;;;;;21.95;16.15;;;;;;;12.04;94.16;94091.47;732774;40;20136;-76
2021/06/26 00:43:35;;;;;;;21.77;15.90;;;;;;;12.06;94.09;94099.06;734743;40;20118;-75
2021/06/26 00:44:07;;;;;;;19.60;14.20;;;;;;;12.09;94.10;94095.97;736973;40;20525;-75
2021/06/26 00:44:38;;;;;;;20.50;14.90;;;;;;;12.12;94.27;94093.72;737600;39;20063;-75
2021/06/26 00:45:11;;;;;;;20.58;14.05;;;;;;;12.05;93.62;94098.25;738973;39;20635;-75
2021/06/26 00:45:41;;;;;;;20.33;14.25;;;;;;;11.97;93.71;94094.22;738560;39;20099;-74
2021/06/26 00:46:12;;;;;;;17.27;13.15;;;;;;;12.08;93.21;94092.56;739438;39;20435;-75
2021/06/26 00:46:42;;;;;;;14.40;10.95;;;;;;;12.19;92.21;94096.94;740179;39;20084;-75
2021/06/26 00:47:13;;;;;;;13.00;11.15;;;;;;;11.98;92.07;94085.38;741053;39;20485;-74
2021/06/26 00:47:44;;;;;;;17.55;13.10;;;;;;;12.01;92.97;94097.16;739790;39;20469;-75
2021/06/26 00:48:15;;;;;;;14.63;10.20;;;;;;;12.23;92.32;94097.25;738976;39;20482;-75
2021/06/26 00:48:45;;;;;;;13.48;10.25;;;;;;;12.24;91.86;94093.63;737296;39;20419;-74
2021/06/26 00:49:16;;;;;;;13.35;10.43;;;;;;;12.20;91.71;94100.34;739045;39;20059;-75
2021/06/26 00:49:46;;;;;;;15.18;10.45;;;;;;;12.04;92.61;94090.69;737449;39;20044;-75
2021/06/26 00:50:22;;;;;;;21.80;11.48;;;;;;;11.95;92.85;94092.88;739017;39;20111;-75
2021/06/26 00:50:53;;;;;;;15.57;11.02;;;;;;;11.87;93.25;94085.44;737164;39;20408;-75
2021/06/26 00:51:24;;;;;;;13.98;11.40;;;;;;;11.87;93.53;94088.06;737941;39;20052;-75
2021/06/26 00:51:54;;;;;;;13.88;10.45;;;;;;;11.90;93.41;94092.78;737063;39;20180;-75
2021/06/26 00:52:25;;;;;;;13.90;11.10;;;;;;;11.86;93.76;94094.28;736347;40;20080;-76
2021/06/26 00:52:55;;;;;;;13.30;10.45;;;;;;;11.89;93.58;94085.97;732611;39;20041;-75
2021/06/26 00:53:26;;;;;;;13.80;10.32;;;;;;;11.89;93.29;94097.22;735523;40;20045;-75
2021/06/26 00:53:57;;;;;;;13.00;10.35;;;;;;;11.78;93.63;94092.81;732991;40;20140;-75
2021/06/26 00:54:28;;;;;;;15.75;10.35;;;;;;;11.76;93.78;94107.88;736334;39;20045;-75
2021/06/26 00:54:58;;;;;;;12.48;10.75;;;;;;;11.79;93.94;94099.59;736219;40;20450;-75
2021/06/26 00:55:29;;;;;;;13.10;10.80;;;;;;;11.71;93.99;94100.75;740122;39;20036;-75
2021/06/26 00:56:02;;;;;;;12.35;10.00;;;;;;;11.76;93.85;94094.84;739125;39;20110;-75
2021/06/26 00:56:32;;;;;;;16.27;9.82;;;;;;;11.62;93.79;94076.09;739575;39;20098;-75
2021/06/26 00:57:04;;;;;;;14.05;10.88;;;;;;;11.69;93.78;94099.44;739025;39;20228;-76
2021/06/26 00:57:35;;;;;;;15.05;10.73;;;;;;;11.64;93.97;94096.72;738088;39;20428;-78
2021/06/26 00:58:06;;;;;;;12.88;10.95;;;;;;;11.63;94.72;94100.31;738703;39;20040;-77
2021/06/26 00:58:37;;;;;;;18.23;11.48;;;;;;;11.61;94.61;94090.16;738844;39;20064;-76
2021/06/26 00:59:08;;;;;;;17.13;11.10;;;;;;;11.67;94.17;94091.81;736438;39;20055;-77
2021/06/26 00:59:40;;;;;;;20.98;15.63;;;;;;;11.88;94.74;94098.22;737185;39;20043;-76
2021/06/26 01:00:12;;;;;;;17.50;13.25;;;;;;;11.79;94.02;94093.59;738048;39;20492;-77
2021/06/26 01:00:43;;;;;;;16.80;11.98;;;;;;;11.67;93.60;94094.44;736195;40;20043;-77
2021/06/26 01:01:13;;;;;;;17.05;11.20;;;;;;;11.57;94.09;94089.06;736568;40;20044;-77
2021/06/26 01:01:44;;;;;;;17.08;11.02;;;;;;;11.60;93.96;94103.41;736071;40;20172;-77
2021/06/26 01:02:15;;;;;;;14.55;11.10;;;;;;;11.54;94.10;94107.72;737043;40;20593;-77
2021/06/26 01:02:45;;;;;;;18.67;11.93;;;;;;;11.49;94.17;94105.81;737523;40;20259;-76
2021/06/26 01:03:16;;;;;;;15.15;11.82;;;;;;;11.51;94.67;94108.19;739864;39;20036;-76
2021/06/26 01:03:46;;;;;;;16.13;11.38;;;;;;;11.53;94.32;94100.94;737558;39;20164;-76
2021/06/26 01:04:17;;;;;;;16.58;11.75;;;;;;;11.69;94.38;94100.22;737062;39;20041;-76
2021/06/26 01:04:48;;;;;;;14.30;11.45;;;;;;;11.73;94.50;94096.09;736915;39;20282;-77
2021/06/26 01:05:18;;;;;;;18.50;11.70;;;;;;;11.95;93.98;94098.09;737617;39;20136;-76
2021/06/26 01:05:49;;;;;;;19.55;13.25;;;;;;;11.95;94.20;94100.72;736914;39;20078;-77
2021/06/26 01:06:20;;;;;;;20.05;15.48;;;;;;;12.00;94.77;94095.56;738169;39;20040;-77
2021/06/26 01:06:50;;;;;;;27.77;17.30;;;;;;;12.12;94.49;94090.28;736802;39;20186;-76
2021/06/26 01:07:21;;;;;;;22.33;13.65;;;;;;;12.30;93.30;94092.69;738823;39;20272;-77
2021/06/26 01:07:52;;;;;;;17.80;14.50;;;;;;;12.33;93.87;94091.44;734874;39;20440;-77
2021/06/26 01:08:25;;;;;;;24.50;17.92;;;;;;;12.26;93.97;94062.09;738021;39;20071;-75
2021/06/26 01:08:55;;;;;;;22.88;16.83;;;;;;;12.57;93.74;94089.44;737102;39;20051;-75
2021/06/26 01:09:26;;;;;;;22.40;16.23;;;;;;;12.61;93.28;94091.34;738569;39;20038;-76
2021/06/26 01:09:57;;;;;;;20.20;13.73;;;;;;;12.64;92.73;94090.88;736506;39;20055;-77
2021/06/26 01:10:28;;;;;;;23.95;12.73;;;;;;;12.65;92.12;94092.44;738292;39;20051;-76
2021/06/26 01:10:58;;;;;;;14.80;11.98;;;;;;;12.64;92.28;94096.09;737207;39;20047;-75
2021/06/26 01:11:29;;;;;;;25.77;15.07;;;;;;;12.66;92.72;94094.03;738851;39;20051;-76
2021/06/26 01:12:00;;;;;;;21.85;14.55;;;;;;;12.54;92.83;94080.28;738242;39;20177;-76
2021/06/26 01:12:31;;;;;;;20.67;15.32;;;;;;;12.51;93.13;94080.75;741500;39;20060;-76
2021/06/26 01:13:01;;;;;;;18.33;15.05;;;;;;;12.59;93.23;94092.63;739784;39;20213;-76
2021/06/26 01:13:32;;;;;;;17.10;14.25;;;;;;;12.64;92.51;94096.09;740728;39;20043;-77
2021/06/26 01:14:03;;;;;;;19.80;13.50;;;;;;;12.68;92.17;94095.63;740498;39;20191;-76
2021/06/26 01:14:33;;;;;;;20.35;12.98;;;;;;;12.73;92.11;94090.44;738927;39;20066;-76
2021/06/26 01:15:07;;;;;;;20.35;14.43;;;;;;;12.68;92.44;94091.19;736170;39;20032;-76
2021/06/26 01:15:37;;;;;;;15.85;12.50;;;;;;;12.69;92.36;94089.38;737457;39;20344;-76
2021/06/26 01:16:08;;;;;;;17.35;12.95;;;;;;;12.69;92.29;94086.75;734097;40;20053;-76
2021/06/26 01:16:38;;;;;;;21.40;13.52;;;;;;;12.62;92.62;94079.09;734941;39;20222;-76
2021/06/26 01:17:09;;;;;;;16.67;13.82;;;;;;;12.66;92.73;94078.38;736886;39;20055;-76
2021/06/26 01:17:39;;;;;;;17.52;13.63;;;;;;;12.74;92.18;94090.22;735649;39;20060;-76
2021/06/26 01:18:10;;;;;;;19.08;12.73;;;;;;;12.71;91.93;94089.91;737672;39;20210;-76
2021/06/26 01:18:40;;;;;;;20.00;13.80;;;;;;;12.66;92.59;94088.00;738632;39;20453;-76
2021/06/26 01:19:11;;;;;;;14.13;10.70;;;;;;;12.72;91.46;94088.88;738665;39;20060;-76
2021/06/26 01:19:41;;;;;;;10.80;9.60;;;;;;;12.78;90.80;94088.72;738179;39;20055;-76
2021/06/26 01:20:13;;;;;;;10.32;9.10;;;;;;;12.68;90.28;94088.56;738141;39;20032;-75
2021/06/26 01:20:43;;;;;;;15.52;9.68;;;;;;;12.60;90.86;94097.59;737072;39;20161;-76
2021/06/26 01:21:14;;;;;;;14.10;10.32;;;;;;;12.55;91.71;94094.09;737976;39;20044;-76
2021/06/26 01:21:44;;;;;;;18.08;11.57;;;;;;;12.42;92.07;94095.22;737558;39;20190;-76
2021/06/26 01:22:21;;;;;;;14.85;11.90;;;;;;;12.31;92.26;94090.88;738288;39;20043;-77
2021/06/26 01:22:55;;;;;;;13.88;10.75;;;;;;;12.19;92.57;94096.94;734861;39;21975;-76
2021/06/26 01:23:26;;;;;;;17.15;11.10;;;;;;;12.09;92.93;94090.75;737530;39;20052;-76
2021/06/26 01:23:57;;;;;;;19.67;12.13;;;;;;;12.03;93.51;94091.69;737944;39;20078;-76
2021/06/26 01:24:27;;;;;;;19.33;12.75;;;;;;;11.98;93.44;94092.41;736734;39;20040;-76
2021/06/26 01:24:58;;;;;;;14.40;11.32;;;;;;;12.08;93.41;94095.19;738137;39;20081;-76
2021/06/26 01:25:30;;;;;;;16.23;12.07;;;;;;;12.20;92.98;94093.31;737481;39;20040;-77
2021/06/26 01:26:00;;;;;;;19.75;13.05;;;;;;;12.12;93.00;94098.94;738962;39;20133;-76
2021/06/26 01:26:35;;;;;;;16.98;13.02;;;;;;;12.11;93.17;94091.31;738061;39;20663;-76
2021/06/26 01:27:05;;;;;;;23.95;13.75;;;;;;;12.23;93.21;94096.47;738745;39;20040;-75
2021/06/26 01:27:36;;;;;;;18.35;13.98;;;;;;;12.21;93.27;94097.50;737049;39;20074;-76
2021/06/26 01:28:06;;;;;;;16.90;13.40;;;;;;;12.13;93.46;94097.88;738464;39;20414;-76
2021/06/26 01:28:38;;;;;;;26.45;13.95;;;;;;;12.13;93.41;94099.72;737691;39;20506;-76
2021/06/26 01:29:10;;;;;;;16.10;12.48;;;;;;;12.29;93.11;94105.97;737499;39;20114;-76
2021/06/26 01:29:49;;;;;;;15.00;12.70;;;;;;;12.44;91.72;94107.00;737023;39;20171;-76
2021/06/26 01:30:29;;;;;;;14.50;11.38;;;;;;;12.58;90.59;94107.50;737784;39;20036;-76
2021/06/26 01:31:00;;;;;;;13.52;9.43;;;;;;;12.48;89.62;94104.72;738868;39;20196;-77
2021/06/26 01:31:30;;;;;;;12.60;9.48;;;;;;;12.46;89.36;94114.59;740355;39;20132;-77
2021/06/26 01:32:06;;;;;;;11.75;9.40;;;;;;;12.48;89.15;94109.13;740135;39;20033;-77
2021/06/26 01:32:38;;;;;;;13.07;8.88;;;;;;;12.41;88.49;94106.66;738298;39;20504;-77
2021/06/26 01:33:08;;;;;;;11.75;8.85;;;;;;;12.39;88.03;94114.75;739872;39;20067;-76
2021/06/26 01:33:39;;;;;;;9.98;8.57;;;;;;;12.31;87.94;94109.91;737355;39;20458;-76
2021/06/26 01:34:09;;;;;;;11.23;8.77;;;;;;;12.16;87.97;94107.06;739750;39;20348;-76
2021/06/26 01:34:40;;;;;;;14.40;9.95;;;;;;;11.95;89.21;94109.31;739031;39;20126;-77
2021/06/26 01:35:10;;;;;;;12.93;9.95;;;;;;;11.85;90.09;94108.31;739752;39;20138;-77
2021/06/26 01:35:41;;;;;;;11.43;9.25;;;;;;;11.95;89.70;94096.28;737800;39;20032;-76
2021/06/26 01:36:11;;;;;;;13.68;9.77;;;;;;;12.06;89.85;94104.25;739398;39;20055;-77
2021/06/26 01:36:42;;;;;;;13.13;10.18;;;;;;;12.03;90.21;94109.94;735292;39;20297;-75
2021/06/26 01:37:13;;;;;;;17.67;10.90;;;;;;;11.86;90.91;94105.50;739224;39;20050;-76
2021/06/26 01:37:44;;;;;;;14.07;11.13;;;;;;;11.89;90.96;94105.03;738744;39;20163;-76
2021/06/26 01:38:15;;;;;;;11.93;10.50;;;;;;;11.89;91.13;94110.25;740646;39;20109;-76
2021/06/26 01:38:55;;;;;;;11.73;9.85;;;;;;;11.97;91.03;94109.06;737692;40;20400;-76
2021/06/26 01:39:26;;;;;;;10.38;8.82;;;;;;;11.94;91.31;94102.50;737699;40;20036;-76
2021/06/26 01:39:56;;;;;;;13.65;9.13;;;;;;;12.07;91.08;94104.03;738708;40;20040;-76
2021/06/26 01:40:28;;;;;;;13.45;8.60;;;;;;;12.11;90.88;94105.16;738755;39;20314;-76
2021/06/26 01:40:58;;;;;;;10.40;8.95;;;;;;;12.12;90.68;94111.97;741196;39;20300;-76
2021/06/26 01:41:32;;;;;;;12.88;8.32;;;;;;;12.08;91.03;94105.63;739865;39;20124;-75
2021/06/26 01:42:03;;;;;;;9.90;8.48;;;;;;;12.08;90.94;94104.84;740863;39;20023;-76
2021/06/26 01:42:34;;;;;;;12.32;8.75;;;;;;;12.18;90.59;94105.03;737666;39;20182;-75
2021/06/26 01:43:04;;;;;;;12.77;9.95;;;;;;;12.07;91.16;94111.09;737567;39;20061;-76
2021/06/26 01:43:35;;;;;;;10.60;9.23;;;;;;;12.01;91.29;94107.59;735602;39;20269;-75
2021/06/26 01:44:05;;;;;;;15.88;10.95;;;;;;;11.78;92.18;94087.59;737874;39;20063;-76
2021/06/26 01:44:36;;;;;;;15.48;10.82;;;;;;;11.71;92.83;94108.56;737019;39;20106;-77
2021/06/26 01:45:07;;;;;;;18.80;12.25;;;;;;;11.65;93.22;94112.09;737936;39;20103;-76
2021/06/26 01:45:37;;;;;;;14.15;12.23;;;;;;;11.59;93.25;94101.81;736081;39;20043;-76
2021/06/26 01:46:08;;;;;;;17.27;11.13;;;;;;;11.70;93.17;94111.41;737781;39;20048;-76
2021/06/26 01:46:38;;;;;;;17.30;13.00;;;;;;;11.58;93.51;94101.03;737206;39;20119;-76
2021/06/26 01:47:09;;;;;;;16.52;11.98;;;;;;;11.60;93.54;94109.44;738264;39;20810;-75
2021/06/26 01:47:55;;;;;;;14.10;11.25;;;;;;;11.85;92.31;94114.34;737700;39;20132;-76
2021/06/26 01:48:25;;;;;;;14.25;9.25;;;;;;;12.03;91.49;94107.34;736370;39;20089;-76
2021/06/26 01:49:13;;;;;;;11.38;9.57;;;;;;;12.04;90.93;94112.34;740850;39;20085;-76
2021/06/26 01:49:44;;;;;;;11.95;9.15;;;;;;;12.13;90.60;94107.53;739124;39;20178;-75
2021/06/26 01:50:16;;;;;;;12.40;9.20;;;;;;;12.14;90.46;94112.50;740882;39;20129;-76
2021/06/26 01:50:47;;;;;;;12.00;10.00;;;;;;;12.15;90.19;94103.66;737898;39;20257;-76
2021/06/26 01:51:17;;;;;;;13.15;9.82;;;;;;;12.10;90.42;94098.34;737071;39;20511;-76
2021/06/26 01:51:48;;;;;;;14.02;9.65;;;;;;;12.12;90.01;94106.75;734572;39;20321;-76
2021/06/26 01:52:18;;;;;;;11.75;9.32;;;;;;;12.14;90.34;94107.28;737648;39;20295;-76
2021/06/26 01:52:49;;;;;;;12.63;10.52;;;;;;;12.13;90.25;94110.94;735139;39;20036;-75
2021/06/26 01:53:20;;;;;;;13.10;9.90;;;;;;;12.13;90.42;94108.31;737751;39;20100;-76
2021/06/26 01:53:51;;;;;;;15.55;10.90;;;;;;;12.14;90.55;94106.50;737789;39;20370;-75
2021/06/26 01:54:21;;;;;;;12.63;10.80;;;;;;;12.12;90.62;94109.34;737990;39;20059;-76
2021/06/26 01:54:52;;;;;;;12.75;10.90;;;;;;;12.09;90.84;94104.59;737029;40;21035;-76
2021/06/26 01:55:23;;;;;;;14.85;11.35;;;;;;;11.94;92.10;94101.72;737265;39;20047;-75
2021/06/26 01:55:53;;;;;;;15.95;11.43;;;;;;;11.84;92.24;94107.50;737105;40;20068;-76
2021/06/26 01:56:24;;;;;;;11.30;10.07;;;;;;;11.98;91.84;94110.66;737523;39;20056;-76
2021/06/26 01:56:54;;;;;;;13.38;8.82;;;;;;;12.00;91.25;94106.00;738650;39;20036;-76
2021/06/26 01:57:25;;;;;;;16.77;10.90;;;;;;;11.87;92.12;94106.28;739105;39;20076;-76
2021/06/26 01:57:56;;;;;;;17.77;11.57;;;;;;;11.75;92.95;94122.72;739454;39;20044;-77
2021/06/26 01:58:27;;;;;;;18.10;12.68;;;;;;;11.83;93.01;94116.38;737018;40;20202;-77
2021/06/26 01:58:59;;;;;;;13.10;10.93;;;;;;;11.98;92.02;94108.06;738704;39;20056;-76
2021/06/26 01:59:29;;;;;;;18.98;15.38;;;;;;;12.06;93.13;94110.25;736701;40;20453;-76
2021/06/26 02:00:08;;;;;;;23.88;17.85;;;;;;;12.01;93.69;94104.19;738823;39;20333;-76
2021/06/26 02:00:38;;;;;;;20.33;15.35;;;;;;;12.05;93.45;94111.31;738314;39;20051;-76
2021/06/26 02:01:09;;;;;;;19.33;14.98;;;;;;;12.20;92.85;94113.38;739649;39;20064;-76
2021/06/26 02:01:39;;;;;;;21.55;14.05;;;;;;;12.15;92.61;94093.25;737860;39;20052;-76
2021/06/26 02:02:09;;;;;;;23.13;14.15;;;;;;;12.28;92.23;94110.38;740086;39;20632;-76
2021/06/26 02:02:40;;;;;;;15.95;11.60;;;;;;;12.26;91.43;94112.44;737080;39;20114;-76
2021/06/26 02:03:10;;;;;;;16.45;12.73;;;;;;;12.18;92.75;94110.22;736809;39;20059;-74
2021/06/26 02:03:41;;;;;;;24.67;17.88;;;;;;;12.21;93.42;94112.38;735123;39;20320;-75
2021/06/26 02:04:11;;;;;;;20.30;13.98;;;;;;;12.28;92.74;94117.44;736449;39;20193;-75
2021/06/26 02:04:42;;;;;;;15.80;12.90;;;;;;;12.37;92.38;94121.22;737648;39;20353;-75
2021/06/26 02:05:16;;;;;;;17.98;12.18;;;;;;;12.36;91.70;94117.03;739764;39;20076;-75
2021/06/26 02:05:47;;;;;;;14.55;11.25;;;;;;;12.38;91.33;94115.78;737097;39;20043;-76
2021/06/26 02:06:18;;;;;;;14.45;10.95;;;;;;;12.35;91.51;94113.66;738359;39;20048;-76
2021/06/26 02:06:48;;;;;;;12.20;10.15;;;;;;;12.44;91.03;94119.28;737547;39;20190;-76
2021/06/26 02:07:19;;;;;;;11.10;9.27;;;;;;;12.36;90.48;94109.22;738036;39;20056;-75
2021/06/26 02:07:51;;;;;;;14.98;9.50;;;;;;;12.44;90.30;94119.28;736997;39;20141;-75
2021/06/26 02:08:22;;;;;;;11.20;9.02;;;;;;;12.39;89.96;94117.34;739027;39;20323;-74
2021/06/26 02:08:53;;;;;;;13.32;10.25;;;;;;;12.18;91.57;94110.22;737393;40;20191;-75
2021/06/26 02:09:24;;;;;;;18.77;11.63;;;;;;;12.19;92.08;94109.97;737496;40;20106;-76
2021/06/26 02:09:54;;;;;;;17.02;12.40;;;;;;;12.23;92.04;94099.06;736925;39;20909;-75
2021/06/26 02:10:25;;;;;;;29.90;11.95;;;;;;;12.25;91.94;94097.81;737023;39;20376;-76
2021/06/26 02:10:55;;;;;;;13.77;11.30;;;;;;;12.37;91.84;94111.56;738762;39;20047;-75
2021/06/26 02:11:26;;;;;;;15.82;11.50;;;;;;;12.34;91.80;94111.25;738097;39;21646;-76
2021/06/26 02:11:56;;;;;;;14.50;10.85;;;;;;;12.37;91.39;94110.78;739286;39;20126;-76
2021/06/26 02:12:27;;;;;;;17.90;12.00;;;;;;;12.35;91.78;94110.22;738018;39;20047;-75
2021/06/26 02:12:57;;;;;;;17.00;11.98;;;;;;;12.42;91.51;94118.72;738980;39;20037;-76
2021/06/26 02:13:28;;;;;;;13.77;11.80;;;;;;;12.33;91.40;94100.03;740080;39;20044;-75
2021/06/26 02:13:59;;;;;;;15.18;13.05;;;;;;;12.20;92.65;94105.56;740659;39;20313;-76
2021/06/26 02:14:29;;;;;;;16.80;12.23;;;;;;;12.14;92.78;94104.69;739715;39;20035;-76
2021/06/26 02:14:59;;;;;;;15.02;11.57;;;;;;;12.34;92.23;94106.03;739303;39;20040;-76
2021/06/26 02:15:30;;;;;;;18.25;11.68;;;;;;;12.47;91.59;94105.75;736173;39;20194;-76
2021/06/26 02:16:00;;;;;;;16.17;12.20;;;;;;;12.52;91.38;94107.63;738851;39;20712;-76
2021/06/26 02:16:31;;;;;;;15.15;11.95;;;;;;;12.58;91.24;94109.28;737134;39;20321;-76
2021/06/26 02:17:02;;;;;;;17.77;12.55;;;;;;;12.53;91.99;94104.78;738518;39;20036;-76
2021/06/26 02:17:32;;;;;;;17.55;13.65;;;;;;;12.56;91.96;94101.72;737729;39;20085;-75
2021/06/26 02:18:02;;;;;;;13.00;10.85;;;;;;;12.61;91.66;94108.81;738113;39;20048;-75
2021/06/26 02:18:33;;;;;;;17.40;12.65;;;;;;;12.65;91.83;94107.31;737419;39;20135;-75
2021/06/26 02:19:03;;;;;;;13.57;11.43;;;;;;;12.72;91.30;94107.16;739463;39;20360;-76
2021/06/26 02:19:34;;;;;;;13.95;10.27;;;;;;;12.75;90.72;94106.69;739639;39;20290;-75
2021/06/26 02:20:06;;;;;;;17.42;11.00;;;;;;;12.68;90.45;94100.84;741034;39;20046;-75
2021/06/26 02:20:36;;;;;;;12.55;10.05;;;;;;;12.53;91.22;94104.78;739621;39;20228;-76
2021/06/26 02:21:07;;;;;;;18.25;10.90;;;;;;;12.52;91.14;94102.41;740087;39;20087;-76
2021/06/26 02:21:37;;;;;;;12.15;9.27;;;;;;;12.52;90.51;94107.63;736962;39;20195;-76
2021/06/26 02:22:08;;;;;;;14.75;11.60;;;;;;;12.35;91.83;94107.63;739617;39;20111;-76
2021/06/26 02:22:41;;;;;;;15.48;12.10;;;;;;;12.23;92.12;94104.28;735714;39;20116;-77
2021/06/26 02:23:12;;;;;;;19.80;13.00;;;;;;;12.15;93.12;94103.66;737830;39;20091;-76
2021/06/26 02:23:42;;;;;;;23.92;14.38;;;;;;;12.09;93.49;94101.19;738356;39;20225;-76
2021/06/26 02:24:13;;;;;;;18.60;14.27;;;;;;;12.03;93.57;94100.31;738255;39;20051;-76
2021/06/26 02:24:44;;;;;;;21.83;15.05;;;;;;;12.01;93.76;94106.81;737736;39;20414;-76